Date,TemperatureHighF,TemperatureAvgF,TemperatureLowF,DewpointHighF,DewpointAvgF,DewpointLowF,HumidityHigh,HumidityAvg,HumidityLow,PressureMaxIn,PressureMinIn,WindSpeedMaxMPH,WindSpeedAvgMPH,GustSpeedMaxMPH,PrecipitationSumIn
2013-1-1,20.8,7.3,-9.2,17.1,-0.9,-99.9,84,70,65,28.97,28.67,8,2,8,0.00
2013-1-2,23.2,20.6,16.5,17.8,15.1,10.0,86,77,65,28.82,28.61,9,3,10,0.00
2013-1-3,16.8,11.9,6.8,11.6,4.1,-99.9,86,69,59,28.97,28.73,12,5,12,0.00
2013-1-4,30.0,20.5,11.2,17.4,12.0,-99.9,83,68,54,28.82,28.67,9,3,9,0.00
2013-1-5,22.1,13.9,5.9,13.5,4.9,-99.9,78,70,63,28.76,28.56,6,2,7,0.00
2013-1-6,21.0,14.8,10.4,13.4,5.2,-99.9,83,66,58,28.91,28.64,13,3,14,0.00
2013-1-7,37.8,27.6,15.8,22.5,19.0,-99.9,86,69,53,28.67,28.53,8,4,12,0.00
2013-1-8,34.3,25.0,13.2,25.9,19.6,7.9,87,78,68,28.67,28.44,8,3,11,0.00
2013-1-9,33.1,28.1,21.9,27.4,18.6,-99.9,84,66,53,29.03,28.59,14,2,18,0.00
2013-1-10,40.6,31.6,22.5,31.9,23.4,-99.9,93,73,46,28.97,28.41,7,4,17,0.13
2013-1-11,38.2,35.1,33.8,36.4,31.7,-99.9,100,92,90,28.41,28.05,6,2,10,0.16
2013-1-12,35.1,10.6,0.7,33.9,-2.1,-99.9,97,65,66,28.76,28.08,16,7,18,0.00
2013-1-13,8.8,3.2,-2.3,0.7,-6.2,-99.9,66,65,66,28.94,28.76,7,4,9,0.00
2013-1-14,12.0,5.9,-1.1,3.8,-2.8,-99.9,66,65,66,29.09,28.94,7,3,8,0.00
2013-1-15,23.8,15.7,5.4,13.8,5.3,-99.9,71,61,52,28.94,28.47,9,4,11,0.00
2013-1-16,33.3,24.3,6.1,30.5,13.7,-8.3,93,62,45,28.97,28.32,13,5,13,0.00
2013-1-17,19.4,10.8,3.7,6.9,-3.4,-99.9,62,51,47,29.09,28.97,6,3,10,0.00
2013-1-18,39.1,25.8,15.4,25.6,17.2,-99.9,80,70,56,28.97,28.44,9,3,10,0.04
2013-1-19,38.3,19.7,-1.8,28.3,10.1,-99.9,92,66,49,28.97,28.38,16,6,24,0.00
2013-1-20,6.9,0.0,-5.4,-6.7,-14.5,-99.9,49,48,49,29.09,28.97,10,5,13,0.00
2013-1-21,-4.5,-9.4,-14.3,-17.5,-23.4,-99.9,49,48,49,29.03,28.97,11,5,13,0.00
2013-1-22,3.4,-5.5,-14.4,-10.0,-18.4,-26.9,49,49,49,29.06,28.91,7,3,8,0.00
2013-1-23,11.7,3.6,-8.6,-2.2,-10.5,-99.9,49,49,49,29.32,28.85,13,4,17,0.00
2013-1-24,11.8,0.9,-9.2,-2.1,-12.4,-21.9,49,49,49,29.35,28.82,8,3,10,0.00
2013-1-25,15.8,9.7,-0.3,7.9,-2.3,-99.9,68,57,49,29.00,28.61,13,6,16,0.00
2013-1-26,20.5,9.9,-3.2,9.7,-3.9,-99.9,60,55,51,29.03,28.79,8,2,10,0.00
2013-1-27,33.2,26.4,18.8,26.4,17.5,-99.9,82,67,57,28.79,28.50,7,3,9,0.00
2013-1-28,37.9,32.2,29.5,32.5,27.2,-99.9,97,84,79,28.59,28.38,7,2,9,0.09
2013-1-29,36.1,31.8,25.7,31.0,26.4,-99.9,93,80,70,28.50,28.26,9,3,12,0.04
2013-1-30,25.7,14.7,5.8,18.5,3.5,-99.9,75,62,57,28.50,28.41,11,2,15,0.00
2013-1-31,6.1,-1.4,-11.2,-4.7,-13.2,-99.9,57,56,57,28.97,28.50,12,6,17,0.00
2013-2-1,1.9,-6.1,-15.8,-8.7,-16.7,-99.9,57,57,57,28.97,28.73,7,3,10,0.00
2013-2-2,10.8,5.1,-1.6,-0.2,-6.6,-99.9,57,56,57,28.85,28.67,5,2,6,0.00
2013-2-3,16.9,9.6,1.2,3.8,-2.9,-99.9,57,55,49,28.76,28.67,8,3,12,0.00
2013-2-4,15.7,9.6,1.9,8.6,-4.5,-99.9,76,51,46,28.76,28.38,6,2,8,0.00
2013-2-5,27.7,20.1,8.5,21.8,8.7,-99.9,88,65,49,28.76,28.32,11,3,13,0.00
2013-2-6,26.1,18.2,10.8,16.7,9.3,-99.9,74,65,60,28.79,28.61,8,3,11,0.00
2013-2-7,31.0,24.4,19.0,22.9,16.5,-99.9,82,72,65,29.00,28.73,8,3,14,0.00
2013-2-8,30.9,18.0,6.5,18.4,9.7,-99.9,80,69,54,29.06,28.88,9,2,10,0.00
2013-2-9,31.1,27.6,22.8,29.5,22.3,-99.9,92,83,79,28.88,28.61,12,4,13,0.00
2013-2-10,30.1,28.2,26.8,28.5,25.5,-99.9,93,89,87,28.61,28.05,12,5,15,0.04
2013-2-11,28.4,23.4,14.8,25.9,16.5,8.9,91,72,58,28.73,28.11,15,6,20,0.00
2013-2-12,33.6,22.5,12.7,19.0,13.3,-99.9,82,68,52,28.73,28.50,8,4,10,0.00
2013-2-13,41.7,30.2,20.1,29.9,23.0,15.1,90,74,52,28.50,28.29,6,2,8,0.04
2013-2-14,32.5,23.2,8.8,29.9,14.5,-2.8,90,68,43,28.91,28.35,10,3,13,0.00
2013-2-15,19.1,9.2,2.8,4.4,-3.5,-99.9,55,53,47,29.03,28.91,8,4,11,0.00
2013-2-16,20.6,9.6,1.9,8.3,-2.3,-10.7,60,54,51,28.97,28.79,5,2,7,0.00
2013-2-17,33.7,19.9,6.1,21.6,9.8,-99.9,76,63,55,28.79,28.29,9,4,15,0.00
2013-2-18,32.3,19.8,5.2,29.1,10.9,-99.9,89,67,54,28.56,28.23,15,6,24,0.00
2013-2-19,6.4,1.4,-4.4,-4.3,-10.3,-99.9,57,56,57,29.09,28.59,15,2,17,0.00
2013-2-20,18.1,3.1,-8.3,3.8,-9.0,-99.9,57,54,47,29.15,29.09,6,2,9,0.00
2013-2-21,23.5,13.4,0.6,13.3,-0.6,-99.9,70,52,48,29.15,28.82,10,4,12,0.00
2013-2-22,33.7,25.3,20.5,20.8,17.3,-99.9,78,70,56,28.82,28.56,10,3,12,0.05
2013-2-23,35.6,25.6,15.0,22.0,16.1,-99.9,81,69,53,28.64,28.53,6,2,7,0.00
2013-2-24,37.1,20.1,7.6,21.8,8.5,-99.9,77,65,50,28.79,28.64,5,1,6,0.00
2013-2-25,34.9,23.9,13.3,21.3,15.2,6.7,81,67,55,28.82,28.76,5,1,6,0.00
2013-2-26,37.0,25.3,16.0,24.6,16.8,-99.9,82,71,57,28.79,28.61,8,2,12,0.03
2013-2-27,43.2,31.1,22.6,22.8,18.7,-99.9,72,59,42,28.79,28.64,11,4,13,0.05
2013-2-28,32.2,27.6,20.5,19.9,15.5,-99.9,65,59,54,28.97,28.79,7,3,10,0.00
2013-3-1,31.2,22.8,12.9,17.1,9.9,-99.9,67,57,50,29.09,28.97,7,3,10,0.00
2013-3-2,34.0,18.2,3.3,15.0,3.7,-99.9,70,53,43,29.06,28.85,6,2,8,0.00
2013-3-3,37.0,26.7,19.3,15.5,10.0,-99.9,58,48,41,28.85,28.67,9,-3,14,0.00
2013-3-4,27.2,24.7,23.2,19.6,14.4,-99.9,79,66,46,28.73,28.64,12,5,15,0.00
2013-3-5,35.5,26.6,22.8,23.9,16.5,-99.9,81,70,58,29.03,28.67,7,3,9,0.04
2013-3-6,32.9,23.4,10.4,17.9,13.7,-99.9,75,64,49,29.12,29.03,6,2,8,0.00
2013-3-7,36.6,20.0,6.1,19.1,9.1,-1.6,74,61,46,29.09,28.97,11,3,14,0.00
2013-3-8,32.4,31.5,30.9,25.6,24.8,24.5,75,74,74,28.82,28.79,5,3,6,0.08
2013-3-9,36.9,34.1,32.4,33.6,28.9,-99.9,93,86,74,28.79,28.44,7,2,9,0.79
2013-3-10,34.0,30.4,26.5,30.7,21.8,-99.9,88,73,64,28.73,28.56,11,6,15,0.00
2013-3-11,33.3,26.7,21.4,20.0,17.1,13.9,75,65,51,28.64,28.50,8,4,10,0.00
2013-3-12,30.9,24.1,17.1,16.8,12.5,8.6,68,58,43,28.94,28.56,14,5,15,0.00
2013-3-13,34.1,19.0,9.7,16.6,4.6,-99.9,74,60,42,29.09,28.91,6,3,8,0.00
2013-3-14,44.4,30.9,24.3,27.1,20.5,-99.9,79,66,46,28.94,28.73,8,3,12,0.04
2013-3-15,35.8,30.9,23.2,29.1,24.2,-99.9,84,76,68,28.73,28.59,11,4,14,0.04
2013-3-16,23.8,17.3,6.5,18.1,7.3,-6.0,78,62,46,28.97,28.67,10,4,12,0.00
2013-3-17,31.0,15.6,0.7,14.8,1.1,-99.9,61,50,43,29.00,28.50,12,4,15,0.00
2013-3-18,30.5,21.4,9.7,29.7,11.7,-99.9,97,67,53,28.56,28.29,16,7,20,0.00
2013-3-19,22.4,11.8,4.1,5.5,-1.8,-99.9,61,52,41,28.91,28.56,14,7,18,0.00
2013-3-20,22.8,11.5,4.4,5.7,-4.4,-11.0,46,44,42,28.94,28.82,13,6,20,0.00
2013-3-21,32.1,14.6,1.2,13.4,-1.2,-99.9,55,46,41,28.85,28.73,6,2,6,0.00
2013-3-22,39.8,21.2,6.1,17.4,4.5,-99.9,59,49,40,28.82,28.73,5,2,8,0.04
2013-3-23,43.0,26.1,12.0,20.2,10.4,-99.9,65,52,39,28.88,28.79,6,2,8,0.00
2013-3-24,38.9,30.6,25.3,22.7,18.0,-99.9,73,59,48,28.82,28.70,10,4,13,0.00
2013-3-25,40.2,30.2,23.0,19.9,14.7,-99.9,62,52,40,28.97,28.79,11,5,13,0.00
2013-3-26,44.2,28.7,18.5,20.8,13.5,-99.9,69,54,38,29.03,28.97,6,3,7,0.00
2013-3-27,48.1,30.2,15.7,23.5,15.1,7.9,70,53,37,29.06,29.00,6,1,8,0.00
2013-3-28,50.4,32.6,17.1,26.1,16.9,-99.9,70,53,38,29.06,28.97,7,2,10,0.00
2013-3-29,55.5,41.0,30.2,34.7,27.4,-99.9,70,59,44,29.00,28.73,10,3,12,0.00
2013-3-30,53.0,42.2,33.3,39.0,33.5,-99.9,92,73,50,28.73,28.59,9,4,12,0.00
2013-3-31,36.6,31.3,19.7,30.5,17.7,-99.9,90,62,41,28.85,28.50,14,7,20,0.00
2013-4-1,36.1,22.5,13.6,15.0,7.4,-99.9,65,53,41,28.97,28.85,11,5,13,0.00
2013-4-2,40.3,25.8,15.0,17.3,11.6,-99.9,77,55,39,29.09,28.97,7,3,10,0.00
2013-4-3,49.4,31.9,14.4,31.5,17.8,-99.9,70,56,42,29.09,28.70,17,4,18,0.00
2013-4-4,46.7,39.0,28.9,31.3,24.2,-99.9,78,56,40,28.91,28.70,11,5,15,0.00
2013-4-5,42.7,31.7,20.9,29.3,19.5,-99.9,82,62,41,28.97,28.61,10,4,14,0.00
2013-4-6,48.2,39.4,34.2,33.5,30.7,28.4,83,71,55,28.59,28.29,10,4,14,0.00
2013-4-7,51.1,40.6,35.1,35.3,28.5,-99.9,82,65,48,28.64,28.50,6,3,8,0.00
2013-4-8,45.1,39.9,36.9,37.1,33.3,-99.9,91,80,73,28.82,28.44,7,3,10,0.00
2013-4-9,40.9,35.3,30.0,31.4,22.4,-99.9,81,60,49,28.94,28.76,13,5,17,0.00
2013-4-10,41.4,36.0,33.4,22.4,16.5,-99.9,57,48,41,28.94,28.64,17,6,22,0.00
2013-4-11,36.1,32.1,28.5,29.6,23.4,-99.9,94,74,43,28.70,28.47,17,7,23,0.00
2013-4-12,40.6,32.2,27.3,33.9,26.8,-99.9,100,82,53,28.59,28.44,8,3,12,0.00
2013-4-13,40.8,32.4,23.7,34.1,26.1,-99.9,100,80,52,28.67,28.56,7,2,8,0.00
2013-4-14,34.2,30.4,23.6,33.1,24.0,-99.9,98,79,62,28.67,28.20,19,5,22,0.00
2013-4-15,60.0,33.8,32.1,58.0,26.3,-99.9,98,79,66,29.92,28.17,12,4,18,3.29
2013-4-16,47.8,37.1,31.8,27.6,23.7,-99.9,77,60,42,29.06,28.67,10,4,14,0.00
2013-4-17,41.5,35.4,29.1,29.5,24.4,-99.9,88,66,57,29.06,28.73,11,4,13,0.00
2013-4-18,33.7,32.1,30.6,32.3,29.9,28.1,98,91,83,28.73,28.35,10,3,13,0.00
2013-4-19,41.4,32.8,26.7,30.0,23.4,-99.9,99,72,39,28.73,28.32,15,6,17,0.00
2013-4-20,44.7,30.8,18.0,21.1,15.4,-99.9,74,54,35,29.00,28.73,7,2,9,0.00
2013-4-21,48.9,38.5,31.4,41.0,29.2,-99.9,89,72,52,29.03,28.73,11,4,19,0.00
2013-4-22,43.2,34.6,31.3,31.0,24.9,-99.9,89,72,49,29.00,28.85,9,4,12,0.00
2013-4-23,42.4,32.8,23.9,33.4,22.8,-99.9,99,68,39,28.94,28.79,11,4,12,0.00
2013-4-24,50.2,36.1,22.7,31.2,26.4,-99.9,100,73,38,28.79,28.61,14,4,17,0.00
2013-4-25,54.7,39.3,28.3,30.5,25.1,-99.9,88,61,36,28.91,28.73,8,4,11,0.00
2013-4-26,71.7,53.2,37.4,40.9,32.5,-99.9,73,48,27,28.85,28.64,8,3,10,0.00
2013-4-27,76.9,56.0,35.4,38.1,29.0,-99.9,65,40,22,28.85,28.56,8,2,10,0.00
2013-4-28,78.6,62.8,50.5,48.6,42.1,-99.9,73,49,31,28.56,28.38,9,4,13,0.00
2013-4-29,79.4,57.8,41.2,41.1,33.5,-99.9,68,44,22,28.59,28.23,7,3,13,0.00
2013-4-30,68.5,61.2,52.0,56.6,39.8,-99.9,83,48,25,28.70,28.08,14,6,18,0.00
2013-5-1,51.6,42.9,36.6,31.0,23.4,19.8,55,46,39,29.26,28.70,10,5,14,0.00
2013-5-2,48.0,39.4,32.6,24.3,20.2,-99.9,57,47,38,29.32,29.18,11,5,17,0.00
2013-5-3,48.7,37.3,28.6,30.5,21.8,-99.9,77,54,39,29.18,28.91,9,4,17,0.00
2013-5-4,43.5,38.0,33.1,36.6,31.5,-99.9,87,79,73,28.94,28.91,9,4,12,0.00
2013-5-5,69.5,50.3,38.1,48.4,37.8,-99.9,83,66,45,28.94,28.79,6,3,8,0.00
2013-5-6,76.0,58.1,40.2,49.9,42.3,-99.9,84,59,35,28.85,28.70,4,1,6,0.00
2013-5-7,83.2,64.6,48.0,50.8,43.2,-99.9,78,50,29,28.79,28.64,8,2,10,0.00
2013-5-8,78.1,62.1,56.8,54.5,46.2,-99.9,86,59,35,28.73,28.67,8,2,10,0.00
2013-5-9,58.6,53.0,43.1,52.6,45.5,-99.9,90,77,57,28.88,28.70,13,3,15,0.00
2013-5-10,70.6,50.9,32.9,35.7,28.4,-99.9,69,46,23,28.91,28.61,11,3,20,0.00
2013-5-11,53.5,44.3,35.4,34.3,19.6,-99.9,59,41,31,28.91,28.64,14,7,21,0.00
2013-5-12,62.4,44.9,27.9,26.2,19.5,-99.9,54,37,25,28.97,28.82,9,3,12,0.00
2013-5-13,79.3,56.5,37.0,45.3,29.9,-99.9,51,37,27,28.85,28.38,10,4,15,0.00
2013-5-14,97.6,68.9,47.3,53.4,39.8,-99.9,71,40,15,28.44,28.23,14,4,17,0.00
2013-5-15,85.3,66.7,52.0,45.3,36.1,-99.9,64,37,20,28.64,28.44,11,4,14,0.00
2013-5-16,87.3,69.4,52.0,44.6,37.6,-99.9,53,33,21,28.67,28.53,14,4,19,0.00
2013-5-17,69.3,62.2,58.6,52.2,36.0,-99.9,73,41,25,28.70,28.61,8,4,12,0.00
2013-5-18,78.9,67.2,57.7,66.2,53.6,-99.9,93,70,63,28.61,28.50,8,3,10,3.02
2013-5-19,83.2,68.1,63.7,67.9,58.6,-99.9,94,77,52,28.50,28.29,10,2,10,0.58
2013-5-20,73.5,61.9,56.0,63.1,52.6,-99.9,96,79,59,28.29,28.23,8,3,10,0.45
2013-5-21,55.8,48.9,46.4,52.2,44.5,-99.9,98,90,87,28.50,28.26,10,4,12,0.54
2013-5-22,52.0,47.2,43.8,48.8,43.4,-99.9,98,90,80,28.79,28.50,11,3,13,0.17
2013-5-23,66.3,52.3,42.1,42.3,35.3,-99.9,96,57,35,29.06,28.79,10,3,12,0.00
2013-5-24,73.0,54.0,37.2,49.6,36.7,-99.9,84,56,30,29.12,28.94,7,2,11,0.54
2013-5-25,67.8,58.5,52.9,50.1,47.2,-99.9,88,68,47,28.97,28.91,10,4,13,0.00
2013-5-26,63.9,57.2,51.3,46.1,41.7,37.4,72,57,39,28.94,28.76,11,4,15,0.00
2013-5-27,66.4,58.6,55.9,51.7,45.6,-99.9,77,65,56,28.79,28.59,8,3,11,0.00
2013-5-28,65.1,58.2,54.4,55.3,50.0,-99.9,90,78,70,28.59,28.47,6,2,9,0.00
2013-5-29,75.4,65.4,54.4,68.1,58.9,-99.9,94,81,64,28.56,28.35,9,2,10,0.29
2013-5-30,76.2,68.1,63.9,66.6,62.5,-99.9,96,84,61,28.38,28.23,8,3,12,0.29
2013-5-31,72.3,60.7,57.7,62.5,44.9,-99.9,99,68,46,28.29,28.23,8,3,10,0.12
2013-6-1,70.2,57.1,50.2,58.1,45.9,-99.9,92,71,58,28.70,28.26,9,3,14,0.00
2013-6-2,67.7,57.0,46.2,44.3,40.4,38.2,79,56,36,28.85,28.70,5,2,8,0.00
2013-6-3,70.8,58.5,43.5,46.1,40.6,-99.9,81,54,37,28.82,28.67,6,2,7,0.00
2013-6-4,60.0,54.9,51.8,55.6,44.2,-99.9,93,73,49,28.82,28.70,7,3,12,0.92
2013-6-5,63.1,55.2,52.0,57.1,49.7,-99.9,94,87,76,28.76,28.67,7,2,8,0.21
2013-6-6,61.0,54.0,49.8,51.2,47.0,-99.9,93,80,69,28.79,28.73,6,2,9,0.00
2013-6-7,68.5,57.7,47.7,53.2,47.7,-99.9,90,72,54,28.82,28.64,4,1,6,0.00
2013-6-8,74.4,60.7,49.6,56.2,46.5,-99.9,94,67,43,28.64,28.61,9,2,10,0.00
2013-6-9,62.2,58.8,56.9,57.0,53.3,-99.9,94,84,68,28.61,28.53,8,3,10,0.37
2013-6-10,75.3,63.1,58.6,61.4,53.7,-99.9,96,78,61,28.61,28.56,4,1,6,0.00
2013-6-11,78.3,67.1,55.6,65.8,58.4,-99.9,94,77,61,28.64,28.50,4,1,8,0.00
2013-6-12,75.3,64.9,58.1,61.9,54.1,-99.9,91,71,49,28.70,28.53,7,2,10,0.25
2013-6-13,79.5,65.9,55.3,55.3,49.2,-99.9,77,58,40,28.85,28.70,6,-1,9,0.00
2013-6-14,82.2,69.2,57.6,58.9,53.0,-99.9,71,59,44,28.82,28.59,10,3,13,0.00
2013-6-15,81.5,68.9,63.5,65.0,48.1,-99.9,83,56,31,28.61,28.56,6,2,6,0.00
2013-6-16,85.2,70.2,55.9,55.7,47.4,-99.9,69,48,24,28.64,28.56,7,2,10,0.00
2013-6-17,80.1,69.1,57.7,55.1,50.2,-99.9,74,53,37,28.79,28.61,7,2,11,0.00
2013-6-18,78.7,63.7,51.6,55.3,45.9,-99.9,68,55,43,28.85,28.73,7,2,10,0.04
2013-6-19,87.1,71.7,57.9,62.7,55.3,-99.9,80,59,40,28.79,28.64,7,2,10,0.00
2013-6-20,90.6,75.9,68.0,68.6,60.2,-99.9,81,62,40,28.70,28.56,8,2,14,0.00
2013-6-21,82.2,72.1,63.5,76.4,65.9,-99.9,100,84,58,28.82,28.44,20,3,27,1.78
2013-6-22,80.7,70.7,65.8,69.3,65.5,-99.9,97,85,66,28.70,28.56,7,2,9,0.17
2013-6-23,81.3,72.4,64.2,69.8,63.9,58.6,100,77,51,28.59,28.38,12,3,12,1.74
2013-6-24,85.8,73.3,59.7,69.4,63.3,-99.9,92,73,53,28.64,28.53,6,1,6,0.00
2013-6-25,87.8,75.2,64.9,69.3,64.5,-99.9,92,73,51,28.56,28.41,8,2,10,0.00
2013-6-26,85.1,77.6,70.8,71.2,66.5,59.2,96,71,48,28.56,28.38,7,2,10,0.00
2013-6-27,83.8,75.7,67.8,64.6,57.2,-99.9,86,56,33,28.56,28.50,9,3,12,0.00
2013-6-28,77.5,69.2,66.9,65.3,54.1,-99.9,88,62,47,28.56,28.50,14,4,17,0.09
2013-6-29,77.6,68.8,61.7,62.8,55.5,-99.9,96,66,40,28.73,28.53,9,3,12,0.12
2013-6-30,81.9,68.0,56.7,55.6,47.9,-99.9,83,54,32,28.85,28.73,7,2,11,0.00
2013-7-1,84.9,72.4,60.4,59.1,53.2,-99.9,79,54,33,28.94,28.85,5,1,10,0.00
2013-7-2,83.3,70.2,59.2,54.5,48.0,-99.9,74,49,33,28.91,28.76,6,2,9,0.00
2013-7-3,87.3,72.6,57.9,59.5,53.1,-99.9,82,54,32,28.79,28.64,6,1,7,0.00
2013-7-4,88.9,75.0,60.4,63.6,55.2,-99.9,80,54,30,28.70,28.56,5,2,11,0.00
2013-7-5,89.0,76.9,68.4,62.2,54.5,-99.9,60,48,38,28.59,28.50,9,2,10,0.00
2013-7-6,82.9,75.0,70.9,70.3,62.0,-99.9,81,66,54,28.59,28.50,4,1,6,0.05
2013-7-7,91.7,75.3,69.1,74.6,65.5,-99.9,92,76,55,28.64,28.53,9,1,9,0.49
2013-7-8,84.9,72.9,65.7,70.2,64.0,-99.9,97,78,56,28.76,28.64,5,1,6,0.00
2013-7-9,84.8,72.6,67.5,70.8,61.9,-99.9,97,76,51,28.70,28.44,8,2,11,0.33
2013-7-11,73.0,72.9,72.8,56.7,56.6,56.4,57,56,56,28.67,28.67,3,3,4,0.00
2013-7-12,90.1,82.8,71.8,65.0,61.5,58.5,63,49,40,28.70,28.56,10,4,14,0.00
2013-7-13,80.3,72.3,69.3,68.3,62.1,-99.9,87,73,53,28.76,28.61,6,2,10,0.38
2013-7-14,84.4,73.8,68.4,69.2,63.2,58.2,78,70,59,28.94,28.76,5,2,6,0.00
2013-7-15,88.3,76.0,66.9,69.7,63.1,-99.9,92,68,48,28.97,28.88,5,2,6,0.00
2013-7-16,91.5,80.4,72.4,71.8,66.1,-99.9,87,65,41,28.94,28.88,4,1,7,0.00
2013-7-17,92.3,80.9,71.8,70.2,65.3,-99.9,80,62,42,28.97,28.82,4,1,6,0.00
2013-7-18,93.1,83.4,73.8,71.1,68.5,65.3,81,63,41,28.82,28.44,6,2,8,0.00
2013-7-19,83.3,77.2,65.5,70.1,60.5,55.1,80,58,39,28.64,28.44,8,3,12,0.00
2013-7-20,80.7,70.4,64.5,60.9,56.7,52.3,87,64,41,28.70,28.61,6,2,8,0.00
2013-7-21,83.4,71.3,59.7,64.8,57.1,-99.9,77,62,48,28.67,28.50,7,3,9,0.00
2013-7-22,83.4,73.7,66.5,69.3,60.6,51.7,87,66,43,28.61,28.41,9,3,12,0.00
2013-7-23,75.9,64.2,57.0,54.4,45.5,-99.9,82,57,41,28.76,28.61,8,2,10,0.00
2013-7-24,78.6,68.1,60.4,58.2,52.4,-99.9,78,60,37,28.79,28.64,4,1,5,0.00
2013-7-25,77.5,67.4,60.1,64.2,55.3,-99.9,94,71,48,28.70,28.61,5,1,6,0.12
2013-7-26,68.0,62.7,53.0,59.1,50.2,43.7,82,64,48,28.85,28.64,8,3,12,0.00
2013-7-27,67.3,57.2,48.7,45.2,41.7,-99.9,81,59,42,28.85,28.67,8,3,13,0.00
2013-7-28,73.0,59.9,47.2,50.1,44.9,-99.9,81,60,43,28.79,28.70,7,2,9,0.00
2013-7-29,79.3,64.1,50.5,59.3,50.4,-99.9,89,65,39,28.85,28.79,6,1,8,0.00
2013-7-30,72.7,66.0,61.3,62.5,58.6,-99.9,90,79,68,28.85,28.76,4,1,6,0.08
2013-7-31,78.1,69.8,63.1,63.6,48.8,-99.9,96,54,34,28.82,28.70,7,3,10,0.00
2013-11-21,60.0,25.9,21.3,58.0,14.1,9.1,98,57,53,29.92,29.00,12,6,18,0.00